Terminal Aerodrome Forecast
Issued by NWS

Home | Current Version | Previous Version | Text Only | Print | Product List | Glossary On
Versions: 1 2 3 4 5 6 7 8 9 10 11 12 13
000
FTUS44 KLIX 191700
TAFMCB
TAF
KMCB 191740Z 1918/2018 VRB06KT P6SM SKC
     FM200000 35006KT P6SM FEW250
     FM200400 01004KT P6SM FEW050=

USA.gov is the U.S. government's official web portal to all federal, state and local government web resources and services.